Time;durP1;ratioP1;P1;durP2;ratioP2;P2;SDS_P1;SDS_P2;PMS_P1;PMS_P2;Temp;Humidity;BMP_temperature;BMP_pressure;BME280_temperature;BME280_humidity;BME280_pressure;Samples;Min_cycle;Max_cycle;Signal;HPM_P1;HPM_P2
2023/04/01 00:01:34;;;;;;;;;;;;;;;30.71;64.37;100966.91;5078149;27;69903;-45
2023/04/01 00:04:04;;;;;;;;;;;;;;;30.72;64.62;100973.97;5076790;27;65441;-44
2023/04/01 00:06:35;;;;;;;;;;;;;;;30.71;64.37;100977.75;5077475;28;69334;-44
2023/04/01 00:09:05;;;;;;;;;;;;;;;30.75;64.42;100980.00;5078169;27;66640;-44
2023/04/01 00:11:36;;;;;;;;;;;;;;;30.71;64.20;100980.44;5070541;27;70645;-44
2023/04/01 00:14:06;;;;;;;;;;;;;;;30.73;64.38;100989.19;5076849;27;65958;-44
2023/04/01 00:16:37;;;;;;;;;;;;;;;30.58;64.49;100956.16;5078549;27;69755;-44
2023/04/01 00:19:08;;;;;;;;;;;;;;;30.72;64.51;100990.22;5061350;28;66046;-45
2023/04/01 00:21:38;;;;;;;;;;;;;;;30.75;64.55;100985.44;5079429;27;69839;-45
2023/04/01 00:24:08;;;;;;;;;;;;;;;30.74;64.22;100990.03;5078025;27;66842;-44
2023/04/01 00:26:38;;;;;;;;;;;;;;;30.75;64.59;100996.25;5079196;27;70364;-45
2023/04/01 00:29:08;;;;;;;;;;;;;;;30.75;64.28;100998.97;5079332;27;65917;-44
2023/04/01 00:31:38;;;;;;;;;;;;;;;30.73;64.73;101005.44;5065849;27;69528;-45
2023/04/01 00:34:08;;;;;;;;;;;;;;;30.72;64.39;101001.06;5079982;27;65995;-46
2023/04/01 00:36:39;;;;;;;;;;;;;;;30.76;64.76;101011.44;5076746;27;70085;-49
2023/04/01 00:39:09;;;;;;;;;;;;;;;30.77;64.23;101021.25;5073963;27;66730;-43
2023/04/01 00:41:41;;;;;;;;;;;;;;;30.77;64.23;101023.97;5062244;28;69323;-44
2023/04/01 00:44:24;;;;;;;;;;;;;;;30.78;64.42;101033.75;5094630;27;66578;-44
2023/04/01 00:46:55;;;;;;;;;;;;;;;30.78;64.60;101041.88;5075723;27;69885;-44
2023/04/01 00:49:51;;;;;;;;;;;;;;;30.79;64.62;101041.66;5077321;27;66674;-45
2023/04/01 00:52:23;;;;;;;;;;;;;;;30.78;64.10;101045.41;5074794;27;69254;-44
2023/04/01 00:54:56;;;;;;;;;;;;;;;30.79;64.16;101040.84;5060726;28;66626;-44
2023/04/01 00:57:36;;;;;;;;;;;;;;;30.80;64.49;101039.81;5073080;28;69736;-44
2023/04/01 01:00:12;;;;;;;;;;;;;;;30.82;64.20;101051.25;5092602;27;59947;-45
2023/04/01 01:02:44;;;;;;;;;;;;;;;30.82;64.43;101048.56;5088405;27;68983;-44
2023/04/01 01:05:16;;;;;;;;;;;;;;;30.82;64.14;101051.25;5075696;28;65691;-44
2023/04/01 01:08:09;;;;;;;;;;;;;;;30.85;64.09;101056.25;5074993;27;70617;-44
2023/04/01 01:10:41;;;;;;;;;;;;;;;30.85;64.38;101056.25;5073212;27;67200;-44
2023/04/01 01:13:17;;;;;;;;;;;;;;;30.86;64.15;101057.91;5073128;27;69775;-45
2023/04/01 01:15:57;;;;;;;;;;;;;;;30.86;64.03;101057.91;5091784;27;67447;-44
2023/04/01 01:18:27;;;;;;;;;;;;;;;30.85;64.09;101053.53;5077070;28;70103;-45
2023/04/01 01:21:20;;;;;;;;;;;;;;;30.89;64.04;101057.47;5076871;27;66237;-45
2023/04/01 01:23:51;;;;;;;;;;;;;;;30.91;64.00;101066.22;5077633;27;70178;-44
2023/04/01 01:26:37;;;;;;;;;;;;;;;30.91;63.66;101064.31;5073746;27;65734;-45
2023/04/01 01:29:26;;;;;;;;;;;;;;;30.94;63.50;101066.59;5058198;28;70028;-44
2023/04/01 01:31:56;;;;;;;;;;;;;;;30.96;63.83;101068.28;5057862;28;66496;-44
2023/04/01 01:34:34;;;;;;;;;;;;;;;30.95;63.63;101072.84;5078319;27;69716;-45
2023/04/01 01:37:14;;;;;;;;;;;;;;;30.98;63.39;101072.44;5075705;27;66602;-46
2023/04/01 01:39:47;;;;;;;;;;;;;;;30.99;63.69;101079.50;5071398;27;69975;-44
2023/04/01 01:42:20;;;;;;;;;;;;;;;30.99;63.29;101078.69;5073519;27;65530;-45
2023/04/01 01:44:52;;;;;;;;;;;;;;;31.00;63.49;101080.34;5054478;28;69310;-45
2023/04/01 01:47:25;;;;;;;;;;;;;;;31.02;63.66;101084.50;5073838;27;66068;-45
2023/04/01 01:49:56;;;;;;;;;;;;;;;31.03;63.27;101080.72;5054877;28;69512;-43
2023/04/01 01:52:28;;;;;;;;;;;;;;;31.05;62.96;101078.63;5074449;27;66263;-44
2023/04/01 01:54:58;;;;;;;;;;;;;;;31.05;63.54;101073.22;5073645;28;71616;-44
2023/04/01 01:57:40;;;;;;;;;;;;;;;31.07;63.26;101078.44;5056461;28;66491;-46
2023/04/01 02:00:17;;;;;;;;;;;;;;;31.08;62.93;101080.91;5049252;28;69527;-45
2023/04/01 02:02:48;;;;;;;;;;;;;;;31.09;63.06;101084.44;5070958;27;66353;-45
2023/04/01 02:05:20;;;;;;;;;;;;;;;31.09;63.02;101088.00;5073614;27;69091;-46
2023/04/01 02:08:26;;;;;;;;;;;;;;;31.11;62.95;101087.78;5073903;28;67115;-48
2023/04/01 02:11:10;;;;;;;;;;;;;;;31.14;62.90;101082.75;5054410;28;69738;-45
2023/04/01 02:13:54;;;;;;;;;;;;;;;31.14;62.72;101080.03;5074197;27;66378;-44
2023/04/01 02:16:29;;;;;;;;;;;;;;;31.15;62.82;101089.03;5080131;27;69921;-44
2023/04/01 02:19:01;;;;;;;;;;;;;;;31.16;63.00;101082.53;5061873;28;66677;-45
2023/04/01 02:21:32;;;;;;;;;;;;;;;31.20;62.53;101091.06;5066365;28;70963;-45
2023/04/01 02:24:05;;;;;;;;;;;;;;;30.96;62.62;101052.84;5060258;28;66569;-45
2023/04/01 02:26:36;;;;;;;;;;;;;;;31.20;63.06;101085.63;5059364;27;69186;-44
2023/04/01 02:29:08;;;;;;;;;;;;;;;31.22;62.69;101076.25;5072634;27;65602;-45
2023/04/01 02:31:39;;;;;;;;;;;;;;;31.24;62.43;101086.88;5058099;27;70291;-46
2023/04/01 02:34:10;;;;;;;;;;;;;;;31.26;62.50;101090.19;5075533;27;65568;-44
2023/04/01 02:36:41;;;;;;;;;;;;;;;31.27;62.52;101086.44;5059147;27;70357;-44
2023/04/01 02:39:11;;;;;;;;;;;;;;;31.27;62.27;101086.44;5059971;28;67099;-45
2023/04/01 02:41:42;;;;;;;;;;;;;;;31.28;62.44;101088.91;5061439;28;69256;-44
2023/04/01 02:44:14;;;;;;;;;;;;;;;31.29;62.08;101092.47;5080805;27;66087;-50
2023/04/01 02:46:44;;;;;;;;;;;;;;;31.31;62.27;101082.22;5062559;28;70541;-45
2023/04/01 02:49:15;;;;;;;;;;;;;;;31.35;62.07;101091.59;5080120;27;65773;-45
2023/04/01 02:51:46;;;;;;;;;;;;;;;31.36;62.13;101085.16;5059792;28;69911;-44
2023/04/01 02:54:16;;;;;;;;;;;;;;;31.37;62.16;101075.97;5073643;27;66017;-45
2023/04/01 02:56:47;;;;;;;;;;;;;;;31.37;62.12;101071.38;5076964;27;70524;-46
2023/04/01 02:59:17;;;;;;;;;;;;;;;31.41;61.85;101069.06;5080736;27;66878;-45
2023/04/01 03:01:47;;;;;;;;;;;;;;;31.43;62.04;101069.69;5068979;27;69817;-44
2023/04/01 03:04:18;;;;;;;;;;;;;;;31.44;61.67;101057.78;5062259;27;66574;-45
2023/04/01 03:06:48;;;;;;;;;;;;;;;31.45;61.96;101051.28;5066884;27;70257;-44
2023/04/01 03:09:18;;;;;;;;;;;;;;;31.47;61.77;101049.19;5079910;27;65414;-45
2023/04/01 03:11:48;;;;;;;;;;;;;;;31.48;61.96;101053.59;5079754;27;69726;-45
2023/04/01 03:14:19;;;;;;;;;;;;;;;31.51;61.54;101050.44;5060546;28;66440;-44
2023/04/01 03:16:49;;;;;;;;;;;;;;;31.52;61.46;101046.66;5096741;27;70536;-44
2023/04/01 03:19:21;;;;;;;;;;;;;;;31.53;61.77;101042.88;5079907;27;66952;-44
2023/04/01 03:21:51;;;;;;;;;;;;;;;31.55;61.77;101039.97;5065530;28;69902;-44
2023/04/01 03:24:21;;;;;;;;;;;;;;;31.54;61.79;101036.44;5075904;27;66643;-44
2023/04/01 03:26:52;;;;;;;;;;;;;;;31.54;61.79;101028.31;5079274;27;69149;-45
2023/04/01 03:29:22;;;;;;;;;;;;;;;31.55;61.65;101029.94;5065746;28;65816;-53
2023/04/01 03:31:52;;;;;;;;;;;;;;;31.54;61.56;101028.31;5060965;28;70684;-44
2023/04/01 03:34:22;;;;;;;;;;;;;;;31.58;61.75;101026.78;5060635;28;66983;-45
2023/04/01 03:36:53;;;;;;;;;;;;;;;31.61;61.36;101020.94;5076236;27;70093;-45
2023/04/01 03:39:23;;;;;;;;;;;;;;;31.63;61.00;101014.47;5093568;27;66163;-44
2023/04/01 03:41:53;;;;;;;;;;;;;;;31.65;61.07;101017.75;5078010;27;70360;-45
2023/04/01 03:44:24;;;;;;;;;;;;;;;31.66;61.14;101016.72;5059498;28;65490;-45
2023/04/01 03:46:56;;;;;;;;;;;;;;;31.69;61.04;101016.28;5093716;27;70707;-45
2023/04/01 03:49:26;;;;;;;;;;;;;;;31.72;61.05;101008.53;5077856;27;66628;-45
2023/04/01 03:51:56;;;;;;;;;;;;;;;31.74;60.64;101011.03;5069606;27;69822;-44
2023/04/01 03:54:26;;;;;;;;;;;;;;;31.74;61.08;101011.84;5079729;27;66913;-44
2023/04/01 03:56:57;;;;;;;;;;;;;;;31.76;61.01;101008.91;5062342;28;70235;-44
2023/04/01 03:59:28;;;;;;;;;;;;;;;31.75;61.06;101012.66;5060837;28;67084;-45
2023/04/01 04:01:59;;;;;;;;;;;;;;;31.75;60.86;101008.06;5061855;27;69844;-45
2023/04/01 04:04:31;;;;;;;;;;;;;;;31.58;60.88;100969.84;5075449;28;65944;-44
2023/04/01 04:07:02;;;;;;;;;;;;;;;31.78;60.60;100996.78;5062345;27;70116;-44
2023/04/01 04:09:49;;;;;;;;;;;;;;;31.81;60.68;100995.50;5061870;28;66626;-45
2023/04/01 04:12:19;;;;;;;;;;;;;;;31.82;60.86;100989.88;5075410;27;69924;-45
2023/04/01 04:14:49;;;;;;;;;;;;;;;31.84;60.72;100995.03;5095650;27;66360;-45
2023/04/01 04:17:19;;;;;;;;;;;;;;;31.84;60.75;100984.19;5060607;27;70165;-44
2023/04/01 04:19:50;;;;;;;;;;;;;;;31.85;60.51;100974.19;5064141;27;66675;-45
2023/04/01 04:22:21;;;;;;;;;;;;;;;31.86;60.53;100976.66;5095407;27;70452;-44
2023/04/01 04:24:51;;;;;;;;;;;;;;;31.87;60.76;100975.59;5083980;27;66399;-45
2023/04/01 04:27:22;;;;;;;;;;;;;;;31.90;60.73;100967.03;5060630;28;70313;-45
2023/04/01 04:30:03;;;;;;;;;;;;;;;31.93;60.43;100960.34;5075037;27;66078;-44
2023/04/01 04:32:34;;;;;;;;;;;;;;;31.93;60.48;100955.78;5093714;27;70530;-44
2023/04/01 04:35:06;;;;;;;;;;;;;;;31.93;60.23;100955.78;5061750;27;65605;-46
2023/04/01 04:37:37;;;;;;;;;;;;;;;31.97;60.20;100951.53;5095281;27;70301;-45
2023/04/01 04:40:08;;;;;;;;;;;;;;;31.97;60.38;100943.41;5060197;28;66823;-45
2023/04/01 04:42:39;;;;;;;;;;;;;;;31.99;60.20;100943.19;5060572;28;69211;-45
2023/04/01 04:45:13;;;;;;;;;;;;;;;31.99;60.32;100932.34;5055216;28;66723;-45
2023/04/01 04:47:52;;;;;;;;;;;;;;;32.00;60.17;100929.38;5060981;27;70303;-44
2023/04/01 04:50:23;;;;;;;;;;;;;;;32.02;60.14;100919.13;5094801;27;66358;-45
2023/04/01 04:52:54;;;;;;;;;;;;;;;32.00;60.03;100913.09;5059059;28;70861;-46
2023/04/01 04:55:24;;;;;;;;;;;;;;;32.03;59.93;100909.94;5094886;27;66182;-44
2023/04/01 04:58:15;;;;;;;;;;;;;;;32.04;60.05;100902.63;5069494;27;69860;-45
2023/04/01 05:00:46;;;;;;;;;;;;;;;32.07;59.96;100902.19;5073972;28;65996;-45
2023/04/01 05:03:26;;;;;;;;;;;;;;;32.08;60.14;100895.69;5058561;28;69898;-44
2023/04/01 05:05:56;;;;;;;;;;;;;;;32.14;60.12;100893.94;5059204;28;65897;-44
2023/04/01 05:08:27;;;;;;;;;;;;;;;32.13;59.78;100884.97;5060361;28;70533;-44
2023/04/01 05:10:58;;;;;;;;;;;;;;;32.19;60.32;100877.81;5055462;28;65987;-46
2023/04/01 05:13:30;;;;;;;;;;;;;;;32.22;60.43;100877.34;5093043;27;70753;-46
2023/04/01 05:16:00;;;;;;;;;;;;;;;32.23;60.45;100868.97;5066253;27;67479;-46
2023/04/01 05:18:30;;;;;;;;;;;;;;;32.08;57.27;100873.16;5042537;27;69919;-48
2023/04/01 05:21:00;;;;;;;;;;;;;;;31.84;54.39;100851.28;5093364;27;66686;-47
2023/04/01 05:23:31;;;;;;;;;;;;;;;31.68;52.40;100851.88;5061417;27;69906;-46
2023/04/01 05:26:06;;;;;;;;;;;;;;;31.53;50.54;100847.69;5093289;27;66862;-47
2023/04/01 05:28:36;;;;;;;;;;;;;;;31.34;49.03;100835.13;5064555;27;70355;-45
2023/04/01 05:31:07;;;;;;;;;;;;;;;31.28;48.53;100838.75;5062202;28;66052;-46
2023/04/01 05:33:44;;;;;;;;;;;;;;;31.18;47.52;100842.00;5057404;27;69376;-46
2023/04/01 05:36:15;;;;;;;;;;;;;;;31.06;46.17;100828.31;5044264;28;65461;-46
2023/04/01 05:38:48;;;;;;;;;;;;;;;30.98;45.96;100820.50;5066829;27;69756;-45
2023/04/01 05:41:20;;;;;;;;;;;;;;;30.90;45.35;100810.78;5091174;27;66548;-47
2023/04/01 05:43:50;;;;;;;;;;;;;;;30.84;44.35;100798.13;5075244;28;69357;-45
2023/04/01 05:46:39;;;;;;;;;;;;;;;30.76;43.93;100792.09;5076519;27;66071;-47
2023/04/01 05:49:18;;;;;;;;;;;;;;;30.66;43.78;100788.03;5057374;27;70658;-47
2023/04/01 05:51:51;;;;;;;;;;;;;;;30.64;43.44;100782.00;5073555;27;66126;-47
2023/04/01 05:54:21;;;;;;;;;;;;;;;30.58;42.71;100774.78;5056381;28;70310;-46
2023/04/01 05:56:51;;;;;;;;;;;;;;;30.36;42.80;100749.13;5075065;27;66080;-45
2023/04/01 05:59:22;;;;;;;;;;;;;;;30.52;42.92;100759.41;5087625;27;71024;-46
2023/04/01 06:01:52;;;;;;;;;;;;;;;30.52;42.77;100759.41;5073972;27;66315;-46
2023/04/01 06:04:23;;;;;;;;;;;;;;;30.47;42.67;100751.13;5072581;27;70939;-46
2023/04/01 06:06:53;;;;;;;;;;;;;;;30.43;42.65;100739.09;5077152;27;66571;-47
2023/04/01 06:09:28;;;;;;;;;;;;;;;30.35;42.47;100731.25;5092754;27;70147;-46
2023/04/01 06:12:08;;;;;;;;;;;;;;;30.34;42.38;100729.56;5088557;27;66979;-48
2023/04/01 06:14:49;;;;;;;;;;;;;;;30.32;41.98;100708.16;5038741;28;68917;-44
2023/04/01 06:17:26;;;;;;;;;;;;;;;30.33;42.10;100700.88;5075353;27;66707;-46
2023/04/01 06:19:59;;;;;;;;;;;;;;;30.32;41.58;100693.81;5071067;27;71049;-46
2023/04/01 06:22:38;;;;;;;;;;;;;;;30.28;41.40;100680.72;5063207;28;66708;-46
2023/04/01 06:25:08;;;;;;;;;;;;;;;30.28;41.76;100677.16;5068499;27;69168;-46
2023/04/01 06:27:57;;;;;;;;;;;;;;;30.26;41.64;100669.28;5058808;27;66988;-46
2023/04/01 06:30:33;;;;;;;;;;;;;;;30.29;41.52;100662.59;5063670;28;70307;-46
2023/04/01 06:33:11;;;;;;;;;;;;;;;30.25;41.19;100656.78;5057539;28;66257;-47
2023/04/01 06:35:50;;;;;;;;;;;;;;;30.26;40.86;100653.06;5061555;28;70926;-47
2023/04/01 06:38:21;;;;;;;;;;;;;;;30.26;41.17;100653.06;5061129;28;67092;-47
2023/04/01 06:41:15;;;;;;;;;;;;;;;30.27;41.42;100640.34;5060583;27;70069;-45
2023/04/01 06:43:59;;;;;;;;;;;;;;;30.26;40.57;100642.22;5079311;27;66712;-46
2023/04/01 06:46:59;;;;;;;;;;;;;;;30.24;40.52;100622.69;5076111;27;70659;-46
2023/04/01 06:50:20;;;;;;;;;;;;;;;30.27;40.52;100630.34;5054091;28;66478;-46
2023/04/01 06:53:11;;;;;;;;;;;;;;;30.27;40.53;100616.81;5060677;28;70113;-46
2023/04/01 06:56:19;;;;;;;;;;;;;;;29.84;40.36;100552.69;5076395;27;66686;-46
2023/04/01 06:59:00;;;;;;;;;;;;;;;30.27;40.69;100610.59;5078051;27;69838;-45
2023/04/01 07:01:35;;;;;;;;;;;;;;;30.23;40.23;100599.38;5062495;28;66135;-46
2023/04/01 07:04:09;;;;;;;;;;;;;;;30.26;40.51;100598.13;5079611;27;70216;-46
2023/04/01 07:06:46;;;;;;;;;;;;;;;30.28;40.38;100588.72;5062404;28;66946;-46
2023/04/01 07:09:22;;;;;;;;;;;;;;;30.26;39.84;100588.13;5075368;28;70069;-46
2023/04/01 07:12:19;;;;;;;;;;;;;;;30.26;39.73;100588.13;5061983;28;66676;-47
2023/04/01 07:15:28;;;;;;;;;;;;;;;30.30;40.36;100587.66;5064167;27;69329;-45
2023/04/01 07:18:05;;;;;;;;;;;;;;;30.30;39.61;100574.13;5063008;28;67095;-46
2023/04/01 07:20:38;;;;;;;;;;;;;;;30.32;40.08;100575.56;5094957;27;70517;-45
2023/04/01 07:23:29;;;;;;;;;;;;;;;30.36;40.24;100578.66;5060544;27;65527;-46
2023/04/01 07:26:22;;;;;;;;;;;;;;;30.33;39.77;100576.38;5062606;27;69781;-46
2023/04/01 07:29:17;;;;;;;;;;;;;;;30.36;39.81;100573.22;5076393;27;66269;-46
2023/04/01 07:32:05;;;;;;;;;;;;;;;30.36;39.87;100570.53;5095072;27;70410;-44
2023/04/01 07:34:53;;;;;;;;;;;;;;;30.38;39.53;100569.25;5066343;27;66210;-46
2023/04/01 07:37:46;;;;;;;;;;;;;;;30.41;39.99;100557.16;5096424;27;69566;-45
2023/04/01 07:40:34;;;;;;;;;;;;;;;30.38;39.45;100550.31;5093368;27;66063;-44
2023/04/01 07:43:05;;;;;;;;;;;;;;;30.39;39.79;100545.72;5066469;27;70656;-45
2023/04/01 07:45:41;;;;;;;;;;;;;;;30.42;40.32;100548.81;5064005;28;66348;-45
2023/04/01 07:48:16;;;;;;;;;;;;;;;30.65;41.06;100541.91;5077388;27;70481;-46
2023/04/01 07:50:49;;;;;;;;;;;;;;;30.90;41.34;100534.53;5073553;27;65639;-45
2023/04/01 07:53:27;;;;;;;;;;;;;;;31.26;42.37;100537.34;5066273;27;70532;-44
2023/04/01 07:56:08;;;;;;;;;;;;;;;31.55;45.07;100533.78;5062251;28;66186;-45
2023/04/01 07:58:42;;;;;;;;;;;;;;;31.80;46.63;100530.06;5046814;28;70227;-46
2023/04/01 08:01:52;;;;;;;;;;;;;;;32.00;48.45;100533.25;5094538;27;66277;-46
2023/04/01 08:04:42;;;;;;;;;;;;;;;32.24;50.04;100538.69;5017463;28;70180;-46
2023/04/01 08:07:18;;;;;;;;;;;;;;;32.42;50.83;100538.53;5076562;27;66734;-47
2023/04/01 08:10:05;;;;;;;;;;;;;;;32.58;52.10;100533.47;5061205;27;70336;-45
2023/04/01 08:13:14;;;;;;;;;;;;;;;32.73;52.90;100531.03;5075612;28;66748;-47
2023/04/01 08:16:07;;;;;;;;;;;;;;;32.87;53.21;100526.97;5073170;28;69638;-45
2023/04/01 08:19:05;;;;;;;;;;;;;;;32.99;53.47;100526.09;5061585;28;65761;-52
2023/04/01 08:21:48;;;;;;;;;;;;;;;33.09;53.57;100518.16;5040906;28;70300;-45
2023/04/01 08:24:24;;;;;;;;;;;;;;;33.19;54.18;100529.22;5060089;28;66848;-47
2023/04/01 08:27:10;;;;;;;;;;;;;;;33.30;54.03;100525.63;5062738;27;72123;-45
2023/04/01 08:29:44;;;;;;;;;;;;;;;33.37;54.18;100520.84;5077307;27;65782;-46
2023/04/01 08:32:24;;;;;;;;;;;;;;;33.48;54.15;100521.00;5072771;27;70447;-47
2023/04/01 08:35:17;;;;;;;;;;;;;;;33.55;54.27;100521.72;5076678;27;67447;-46
2023/04/01 08:37:50;;;;;;;;;;;;;;;33.64;54.08;100513.97;5056881;28;70770;-46
2023/04/01 08:40:30;;;;;;;;;;;;;;;33.71;54.51;100514.59;5091085;27;66892;-46
2023/04/01 08:43:04;;;;;;;;;;;;;;;33.77;54.38;100519.91;5057560;27;69838;-47
2023/04/01 08:45:55;;;;;;;;;;;;;;;33.83;54.34;100517.25;5088590;27;65922;-46
2023/04/01 08:48:37;;;;;;;;;;;;;;;33.88;54.26;100514.59;5067901;27;68563;-45
2023/04/01 08:51:15;;;;;;;;;;;;;;;33.93;54.35;100528.28;5057089;28;66404;-46
2023/04/01 08:54:02;;;;;;;;;;;;;;;33.99;53.95;100530.00;5057801;28;69537;-45
2023/04/01 08:56:51;;;;;;;;;;;;;;;34.01;53.72;100520.50;5049085;28;66721;-46
2023/04/01 08:59:21;;;;;;;;;;;;;;;34.07;54.04;100523.34;5090383;27;70626;-46
2023/04/01 09:01:55;;;;;;;;;;;;;;;34.10;54.40;100520.97;5058072;27;66827;-45
2023/04/01 09:04:59;;;;;;;;;;;;;;;34.14;54.43;100516.63;5075985;27;70078;-46
2023/04/01 09:07:52;;;;;;;;;;;;;;;34.18;54.13;100515.06;5056845;27;65932;-46
2023/04/01 09:10:25;;;;;;;;;;;;;;;34.23;54.30;100523.28;5062789;27;69834;-45
2023/04/01 09:13:30;;;;;;;;;;;;;;;34.27;54.31;100529.06;5057626;28;66774;-46
2023/04/01 09:16:19;;;;;;;;;;;;;;;34.32;54.45;100522.84;5088507;27;70024;-44
2023/04/01 09:19:09;;;;;;;;;;;;;;;34.35;54.43;100530.50;5093698;27;65752;-45
2023/04/01 09:22:06;;;;;;;;;;;;;;;34.36;54.48;100526.72;5082912;27;69739;-46
2023/04/01 09:24:56;;;;;;;;;;;;;;;34.40;54.18;100527.88;5060129;28;66644;-47
2023/04/01 09:27:34;;;;;;;;;;;;;;;34.42;54.60;100531.97;5078898;27;70123;-46
2023/04/01 09:30:08;;;;;;;;;;;;;;;34.44;54.74;100529.03;5061872;27;65920;-46
2023/04/01 09:32:57;;;;;;;;;;;;;;;34.49;54.41;100531.78;5053396;28;69330;-45
2023/04/01 09:35:31;;;;;;;;;;;;;;;34.51;54.16;100532.34;5075717;27;66151;-46
2023/04/01 09:38:05;;;;;;;;;;;;;;;34.34;55.96;100523.44;5058186;27;70463;-45
2023/04/01 09:40:55;;;;;;;;;;;;;;;34.13;57.24;100544.94;5088748;27;66036;-45
2023/04/01 09:43:45;;;;;;;;;;;;;;;33.93;58.60;100539.16;5075661;27;69151;-46
2023/04/01 09:46:19;;;;;;;;;;;;;;;33.78;59.26;100537.84;5072885;27;66948;-44
2023/04/01 09:48:55;;;;;;;;;;;;;;;33.73;59.46;100545.13;5076057;28;69457;-44
2023/04/01 09:51:51;;;;;;;;;;;;;;;33.67;60.15;100557.00;5077427;27;66048;-44
2023/04/01 09:54:25;;;;;;;;;;;;;;;33.57;60.03;100557.63;5097274;27;70282;-43
2023/04/01 09:57:16;;;;;;;;;;;;;;;33.45;59.63;100570.44;5066795;27;65549;-44
2023/04/01 10:00:07;;;;;;;;;;;;;;;33.37;60.01;100575.22;5092811;27;69970;-45
2023/04/01 10:02:58;;;;;;;;;;;;;;;33.34;59.57;100580.31;5078417;28;66062;-43
2023/04/01 10:05:36;;;;;;;;;;;;;;;33.53;59.33;100586.41;5096292;27;70399;-43
2023/04/01 10:08:13;;;;;;;;;;;;;;;33.68;58.17;100586.66;5098004;27;66222;-44
2023/04/01 10:10:56;;;;;;;;;;;;;;;33.81;57.87;100597.22;5080978;28;70574;-44
2023/04/01 10:13:30;;;;;;;;;;;;;;;33.89;57.59;100597.88;5098551;27;66810;-44
2023/04/01 10:16:03;;;;;;;;;;;;;;;33.96;57.29;100598.53;5080504;27;70482;-44
2023/04/01 10:18:50;;;;;;;;;;;;;;;34.00;56.71;100599.69;5064703;28;66861;-43
2023/04/01 10:21:25;;;;;;;;;;;;;;;34.02;56.99;100603.81;5061264;27;69276;-43
2023/04/01 10:24:08;;;;;;;;;;;;;;;34.03;56.72;100610.06;5074116;27;66875;-45
2023/04/01 10:26:50;;;;;;;;;;;;;;;34.06;56.64;100609.59;5062674;28;70071;-44
2023/04/01 10:29:58;;;;;;;;;;;;;;;34.07;56.29;100613.16;5070436;27;66500;-44
2023/04/01 10:32:32;;;;;;;;;;;;;;;34.07;56.28;100613.97;5096399;27;70638;-43
2023/04/01 10:35:02;;;;;;;;;;;;;;;33.89;57.60;100608.75;5080688;27;66287;-43
2023/04/01 10:37:51;;;;;;;;;;;;;;;33.67;58.19;100611.38;5064730;28;70666;-43
2023/04/01 10:40:35;;;;;;;;;;;;;;;33.55;58.81;100619.63;5077255;27;65820;-43
2023/04/01 10:43:46;;;;;;;;;;;;;;;33.42;59.41;100614.44;5053405;27;69634;-44
2023/04/01 10:46:35;;;;;;;;;;;;;;;33.31;59.55;100614.25;5059810;28;67046;-43
2023/04/01 10:49:31;;;;;;;;;;;;;;;33.26;59.93;100625.03;5054616;28;70281;-45
2023/04/01 10:52:22;;;;;;;;;;;;;;;33.20;60.14;100627.91;5043453;28;66988;-46
2023/04/01 10:55:36;;;;;;;;;;;;;;;33.13;60.79;100642.47;5077122;28;70905;-46
2023/04/01 10:58:38;;;;;;;;;;;;;;;33.12;60.73;100646.22;5051364;27;66919;-43
2023/04/01 11:02:05;;;;;;;;;;;;;;;33.06;61.25;100654.53;5054659;28;69682;-44
2023/04/01 11:05:15;;;;;;;;;;;;;;;32.98;61.38;100654.88;5053615;28;66316;-45
2023/04/01 11:08:09;;;;;;;;;;;;;;;32.89;61.12;100666.09;5044142;28;69875;-42
2023/04/01 11:10:44;;;;;;;;;;;;;;;32.85;61.75;100661.41;5073753;27;66762;-44
2023/04/01 11:13:43;;;;;;;;;;;;;;;32.78;61.60;100669.69;5089230;27;70046;-42
2023/04/01 11:16:27;;;;;;;;;;;;;;;32.74;61.78;100673.13;5022229;28;66200;-43
2023/04/01 11:19:07;;;;;;;;;;;;;;;32.68;61.75;100677.59;5056826;28;68846;-42
2023/04/01 11:21:40;;;;;;;;;;;;;;;32.63;61.85;100688.38;5055984;28;65483;-41
2023/04/01 11:24:17;;;;;;;;;;;;;;;32.58;61.98;100677.38;5057048;28;69294;-42
2023/04/01 11:27:29;;;;;;;;;;;;;;;32.53;62.30;100682.69;5050974;28;65615;-44
2023/04/01 11:30:20;;;;;;;;;;;;;;;32.49;62.60;100680.44;5065136;27;70308;-43
2023/04/01 11:33:23;;;;;;;;;;;;;;;32.47;62.41;100673.59;5088370;27;66652;-44
2023/04/01 11:36:02;;;;;;;;;;;;;;;32.41;62.41;100686.19;5051522;27;69528;-43
2023/04/01 11:38:36;;;;;;;;;;;;;;;32.35;62.96;100692.56;5057299;27;66406;-44
2023/04/01 11:41:36;;;;;;;;;;;;;;;32.35;62.61;100699.91;5073852;27;70562;-42
2023/04/01 11:44:35;;;;;;;;;;;;;;;32.32;62.62;100708.47;5074806;27;66250;-42
2023/04/01 11:47:32;;;;;;;;;;;;;;;32.28;62.86;100719.00;5065486;27;69402;-42
2023/04/01 11:50:11;;;;;;;;;;;;;;;32.21;62.72;100718.28;5080080;27;66526;-41
2023/04/01 11:53:07;;;;;;;;;;;;;;;32.15;62.84;100735.47;5059757;28;69342;-43
2023/04/01 11:55:44;;;;;;;;;;;;;;;32.01;63.51;100741.13;5060405;27;66532;-43
2023/04/01 11:58:17;;;;;;;;;;;;;;;31.99;63.71;100755.97;5077971;27;69794;-43
2023/04/01 12:01:04;;;;;;;;;;;;;;;31.89;63.85;100763.81;5078032;28;67345;-43
2023/04/01 12:03:37;;;;;;;;;;;;;;;31.84;64.65;100764.47;5072710;27;70005;-42
2023/04/01 12:06:33;;;;;;;;;;;;;;;31.88;64.35;100762.97;5073726;27;64805;-44
2023/04/01 12:09:30;;;;;;;;;;;;;;;31.91;64.63;100767.97;5077213;27;69808;-44
2023/04/01 12:12:00;;;;;;;;;;;;;;;31.92;64.12;100769.63;5079311;27;67108;-42
2023/04/01 12:14:34;;;;;;;;;;;;;;;31.88;64.52;100768.41;5077677;27;69719;-44
2023/04/01 12:17:10;;;;;;;;;;;;;;;31.81;64.82;100773.09;5078324;27;66031;-45
2023/04/01 12:19:41;;;;;;;;;;;;;;;31.76;64.98;100775.66;5059977;27;69214;-43
2023/04/01 12:22:29;;;;;;;;;;;;;;;31.70;64.88;100773.84;5077595;27;65801;-43
2023/04/01 12:25:22;;;;;;;;;;;;;;;31.64;64.73;100777.50;5077262;27;68560;-44
2023/04/01 12:28:06;;;;;;;;;;;;;;;31.57;64.85;100791.97;5055510;27;66345;-44
2023/04/01 12:30:51;;;;;;;;;;;;;;;31.55;65.65;100787.81;5079175;27;68540;-44
2023/04/01 12:33:40;;;;;;;;;;;;;;;31.52;65.49;100791.81;5055687;28;66076;-45
2023/04/01 12:36:18;;;;;;;;;;;;;;;31.51;65.43;100790.16;5074953;27;70197;-44
2023/04/01 12:39:00;;;;;;;;;;;;;;;31.55;65.80;100795.94;5091908;27;66601;-44
2023/04/01 12:41:38;;;;;;;;;;;;;;;31.61;65.62;100798.56;5076188;27;70278;-43
2023/04/01 12:44:19;;;;;;;;;;;;;;;31.53;66.25;100798.88;5076502;27;66080;-45
2023/04/01 12:47:08;;;;;;;;;;;;;;;31.55;65.13;100802.19;5074964;27;70519;-44
2023/04/01 12:49:48;;;;;;;;;;;;;;;31.40;62.07;100804.47;5061773;28;66001;-45
2023/04/01 12:52:36;;;;;;;;;;;;;;;31.28;59.31;100800.81;5076029;27;70392;-43
2023/04/01 12:55:25;;;;;;;;;;;;;;;31.12;57.45;100808.50;5079956;27;66637;-44
2023/04/01 12:58:07;;;;;;;;;;;;;;;31.02;56.35;100819.00;5079086;27;69664;-46
2023/04/01 13:00:40;;;;;;;;;;;;;;;30.90;54.49;100820.78;5077473;27;65106;-45
2023/04/01 13:03:19;;;;;;;;;;;;;;;30.81;53.58;100822.09;5078714;27;70001;-44
2023/04/01 13:06:14;;;;;;;;;;;;;;;30.75;52.82;100822.97;5078621;27;67159;-45
2023/04/01 13:09:07;;;;;;;;;;;;;;;30.69;52.58;100817.38;5057997;27;70438;-45
2023/04/01 13:11:54;;;;;;;;;;;;;;;30.61;51.45;100817.63;5079318;28;66375;-44
2023/04/01 13:14:45;;;;;;;;;;;;;;;30.60;51.83;100810.56;5078618;27;70667;-45
2023/04/01 13:17:27;;;;;;;;;;;;;;;30.55;52.47;100818.53;5057294;27;66250;-45
2023/04/01 13:19:58;;;;;;;;;;;;;;;30.55;51.88;100823.94;5076998;27;70651;-45
2023/04/01 13:22:46;;;;;;;;;;;;;;;30.52;51.12;100832.50;5079703;27;66530;-45
2023/04/01 13:25:39;;;;;;;;;;;;;;;30.47;51.10;100837.75;5090240;27;69535;-44
2023/04/01 13:28:14;;;;;;;;;;;;;;;30.42;50.70;100842.97;5075637;27;66294;-45
2023/04/01 13:30:48;;;;;;;;;;;;;;;30.42;52.12;100845.69;5076714;27;70414;-45
2023/04/01 13:33:38;;;;;;;;;;;;;;;30.36;51.58;100847.38;5077732;27;66581;-45
2023/04/01 13:36:20;;;;;;;;;;;;;;;30.36;52.07;100846.56;5078273;27;69380;-45
2023/04/01 13:39:08;;;;;;;;;;;;;;;30.32;50.76;100856.16;5076823;27;66661;-45